Kousekimaru No2 — JM5898 — position and weather

sailwx.info

Track history (hours):
 
Tides and Currents Weather Stations Pressure Air Temp Water Temp Dewpoint Dewpoint Depression Visibility Wind Speed Wind Dir Waves Ship Positions

Kousekimaru No2

Last reported at 2018-Feb-24 09:30 UTC. Time now 2018-Feb-24 10:00 UTC.
Position N 35°32' E 140°03'.

Length 160 m; draft 10.5 m.

Type: Cargo ship. MMSI: 431400685.

Date/timePositionNaut miles runAvg speedWind from/ knotsBaromVisibWave heightAir tempDewpointWater temp
2018-Feb-24 09:30N 35°32' E 140°03'0 0.0
2018-Feb-24 09:00N 35°32' E 140°03'0 0.0
2018-Feb-24 08:30N 35°32' E 140°03'0 0.0
2018-Feb-24 08:00N 35°32' E 140°03'0 0.0
2018-Feb-24 07:30N 35°32' E 140°03'0 0.0
2018-Feb-24 07:00N 35°32' E 140°03'0 0.0
2018-Feb-24 06:30N 35°32' E 140°03'0 0.0
2018-Feb-24 05:57N 35°32' E 140°03'0 0.0
2018-Feb-24 05:30N 35°32' E 140°03'0 0.0
2018-Feb-24 05:00N 35°32' E 140°03'0 0.0
2018-Feb-24 04:30N 35°32' E 140°03'0 0.0
2018-Feb-24 04:00N 35°32' E 140°03'0 0.0
2018-Feb-24 03:30N 35°32' E 140°03'0 0.0
2018-Feb-24 03:00N 35°32' E 140°03'0 0.0
2018-Feb-24 02:30N 35°32' E 140°03'0 0.0
2018-Feb-24 02:00N 35°32' E 140°03'0 0.0
2018-Feb-24 01:30N 35°32' E 140°03'0 0.0
2018-Feb-24 01:00N 35°32' E 140°03'0 0.0
2018-Feb-24 00:30N 35°32' E 140°03'0 0.0
2018-Feb-24 00:00N 35°32' E 140°03'0 0.0
2018-Feb-23 23:30N 35°32' E 140°03'0 0.0
2018-Feb-23 23:00N 35°32' E 140°03'0 0.0
2018-Feb-23 22:30N 35°32' E 140°03'0 0.0
2018-Feb-23 22:00N 35°32' E 140°03'1 1.1
2018-Feb-23 21:30N 35°32' E 140°03'510.0
2018-Feb-23 21:00N 35°31' E 139°57'612.0
2018-Feb-23 20:30N 35°28' E 139°51'612.2
2018-Feb-23 20:00N 35°23' E 139°46'611.2
2018-Feb-23 19:30N 35°18' E 139°45'611.6
2018-Feb-23 19:00N 35°12' E 139°47'612.2
2018-Feb-23 18:30N 35°06' E 139°44'611.5
2018-Feb-23 18:00N 35°02' E 139°39'611.2
2018-Feb-23 17:31N 34°58' E 139°34'611.1
2018-Feb-23 16:58N 34°55' E 139°28'511.1
2018-Feb-23 16:30N 34°52' E 139°23'611.3
2018-Feb-23 16:00N 34°49' E 139°18'711.9
2018-Feb-23 15:26N 34°44' E 139°12'612.4
2018-Feb-23 14:59N 34°40' E 139°07'611.8
2018-Feb-23 14:31N 34°36' E 139°02'611.1
2018-Feb-23 14:00N 34°32' E 138°57'911.5
2018-Feb-23 13:14N 34°30' E 138°47'311.6
2018-Feb-23 12:57N 34°29' E 138°43'611.3
2018-Feb-23 12:26N 34°29' E 138°36'511.4
2018-Feb-23 12:00N 34°29' E 138°30'611.5
2018-Feb-23 11:29N 34°30' E 138°22'511.3
2018-Feb-23 11:00N 34°30' E 138°16'611.8
2018-Feb-23 10:29N 34°30' E 138°08'612.0
2018-Feb-23 09:59N 34°31' E 138°01'912.2
2018-Feb-23 09:15N 34°31' E 137°50'5711.6
2018-Feb-23 04:24N 34°08' E 136°48'2311.8
2018-Feb-23 02:25N 33°55' E 136°25'20 0.4
2018-Feb-21 01:03N 34°07' E 136°44'115.4
2018-Feb-21 00:59N 34°08' E 136°45'3214.8
2018-Feb-20 22:50N 34°23' E 137°19'3812.5
2018-Feb-20 19:49N 34°32' E 138°03'411.7
2018-Feb-20 19:29N 34°32' E 138°07'511.3
2018-Feb-20 19:00N 34°32' E 138°14'610.8
2018-Feb-20 18:28N 34°32' E 138°21'510.6
2018-Feb-20 18:00N 34°33' E 138°27'611.2
2018-Feb-20 17:29N 34°33' E 138°34'511.6
2018-Feb-20 17:00N 34°34' E 138°41'612.0
2018-Feb-20 16:29N 34°34' E 138°48'510.6
2018-Feb-20 15:59N 34°35' E 138°55'811.7
2018-Feb-20 15:17N 34°40' E 139°02'713.8
2018-Feb-20 14:49N 34°45' E 139°07'713.5
2018-Feb-20 14:17N 34°51' E 139°13'413.5
2018-Feb-20 13:59N 34°53' E 139°17'713.5
2018-Feb-20 13:29N 34°57' E 139°24'713.1
2018-Feb-20 12:59N 35°01' E 139°30'613.2
2018-Feb-20 12:30N 35°04' E 139°37'713.4
2018-Feb-20 12:01N 35°08' E 139°43'713.3
2018-Feb-20 11:29N 35°15' E 139°46'612.8
2018-Feb-20 11:00N 35°20' E 139°42'612.3
2018-Feb-20 10:30N 35°26' E 139°45'713.6
2018-Feb-20 10:00N 35°30' E 139°52'713.2
2018-Feb-20 09:30N 35°32' E 139°60'3 5.7
2018-Feb-20 08:59N 35°32' E 140°03'0 0.0
2018-Feb-20 08:26N 35°32' E 140°03'0 0.0
2018-Feb-20 07:56N 35°32' E 140°03'0 0.0
2018-Feb-20 07:26N 35°32' E 140°03'0 0.0
2018-Feb-20 06:56N 35°32' E 140°03'0 0.0
2018-Feb-20 06:29N 35°32' E 140°03'0 0.0
2018-Feb-20 05:59N 35°32' E 140°03'0 0.0
2018-Feb-20 05:26N 35°32' E 140°03'0 0.0
2018-Feb-20 04:59N 35°32' E 140°03'0 0.0
2018-Feb-20 04:29N 35°32' E 140°03'0 0.0
2018-Feb-20 03:59N 35°32' E 140°03'0 0.0
2018-Feb-20 03:26N 35°32' E 140°03'0 0.0
2018-Feb-20 02:59N 35°32' E 140°03'0 0.0
2018-Feb-20 02:29N 35°32' E 140°03'0 0.0
2018-Feb-20 01:56N 35°32' E 140°03'0 0.0
2018-Feb-20 01:26N 35°32' E 140°03'0 0.0
2018-Feb-20 00:56N 35°32' E 140°03'0 0.0
2018-Feb-20 00:26N 35°32' E 140°03'0 0.0
2018-Feb-19 23:56N 35°32' E 140°03'0 0.0
2018-Feb-19 23:26N 35°32' E 140°03'0 0.0
2018-Feb-19 22:59N 35°32' E 140°03'0 0.0
2018-Feb-19 22:20N 35°32' E 140°03'0 0.0
2018-Feb-19 21:56N 35°32' E 140°03'0 0.0
2018-Feb-19 21:20N 35°32' E 140°03'0 0.0
2018-Feb-19 20:56N 35°32' E 140°03'0 0.0
2018-Feb-19 20:26N 35°32' E 140°03'1 2.4
2018-Feb-19 20:00N 35°32' E 140°02'510.7
2018-Feb-19 19:30N 35°31' E 139°56'612.0
2018-Feb-19 19:01N 35°27' E 139°50'611.9
2018-Feb-19 18:30N 35°23' E 139°46'611.5
2018-Feb-19 18:01N 35°17' E 139°46'611.8
2018-Feb-19 17:30N 35°11' E 139°47'612.0
2018-Feb-19 17:00N 35°06' E 139°43'612.1
2018-Feb-19 16:30N 35°01' E 139°38'612.5
2018-Feb-19 16:00N 34°58' E 139°32'612.7
2018-Feb-19 15:30N 34°54' E 139°26'813.2
2018-Feb-19 14:52N 34°48' E 139°18'513.7
2018-Feb-19 14:30N 34°45' E 139°14'814.0
2018-Feb-19 13:57N 34°39' E 139°07'613.4
2018-Feb-19 13:30N 34°35' E 139°02'713.3
2018-Feb-19 13:00N 34°32' E 138°55'713.3
2018-Feb-19 12:29N 34°31' E 138°47'613.0
2018-Feb-19 12:00N 34°31' E 138°39'913.0
2018-Feb-19 11:20N 34°31' E 138°29'413.0
2018-Feb-19 11:00N 34°31' E 138°23'712.9
2018-Feb-19 10:30N 34°31' E 138°15'713.4
2018-Feb-19 09:57N 34°31' E 138°07'613.2
2018-Feb-19 09:30N 34°32' E 137°59'713.0
2018-Feb-19 08:58N 34°32' E 137°51'612.8
2018-Feb-19 08:28N 34°32' E 137°43'29511.1
2018-Feb-18 05:45N 33°21' E 131°57'414.2
2018-Feb-18 05:30N 33°25' E 131°55'814.0
2018-Feb-18 04:57N 33°31' E 131°51'714.3
2018-Feb-18 04:29N 33°37' E 131°47'713.5
2018-Feb-18 04:00N 33°41' E 131°41'713.7
2018-Feb-18 03:30N 33°44' E 131°33'612.6
2018-Feb-18 03:00N 33°46' E 131°26'612.4
2018-Feb-18 02:30N 33°49' E 131°19'611.5
2018-Feb-18 02:00N 33°51' E 131°13'5 9.6
2018-Feb-18 01:30N 33°56' E 131°14'1 0.4
2018-Feb-17 23:17N 33°57' E 131°14'0 0.0
2018-Feb-17 12:26N 33°57' E 131°14'0 0.0
2018-Feb-17 11:56N 33°57' E 131°14'0 0.0
2018-Feb-17 11:26N 33°57' E 131°14'0 0.0
2018-Feb-17 10:56N 33°57' E 131°14'0 0.0
2018-Feb-17 10:26N 33°57' E 131°14'0 0.0
2018-Feb-17 09:56N 33°57' E 131°14'0 0.0
2018-Feb-17 09:20N 33°57' E 131°14'0 0.0
2018-Feb-17 08:56N 33°57' E 131°14'0 0.0
2018-Feb-17 08:20N 33°57' E 131°14'0 0.0
2018-Feb-17 06:56N 33°57' E 131°14'0 0.0
2018-Feb-17 05:26N 33°57' E 131°14'0 0.0
2018-Feb-17 04:44N 33°57' E 131°14'0 0.1
2018-Feb-17 04:20N 33°57' E 131°14'0 0.0
2018-Feb-17 03:47N 33°57' E 131°14'0 0.0
2018-Feb-17 02:35N 33°57' E 131°14'0 0.0
2018-Feb-17 02:14N 33°57' E 131°14'0 0.2
2018-Feb-17 01:56N 33°57' E 131°14'0 0.1
2018-Feb-17 01:26N 33°57' E 131°14'0 0.0
2018-Feb-17 00:59N 33°57' E 131°14'0 0.0
2018-Feb-17 00:26N 33°57' E 131°14'0 0.0
2018-Feb-16 23:56N 33°57' E 131°14'0 0.0
2018-Feb-16 23:26N 33°57' E 131°14'0 0.0
2018-Feb-16 22:56N 33°57' E 131°14'0 0.0
2018-Feb-16 22:14N 33°57' E 131°14'0 0.0
2018-Feb-16 21:50N 33°57' E 131°14'0 0.0
2018-Feb-16 21:26N 33°57' E 131°14'0 0.0
2018-Feb-16 20:56N 33°57' E 131°14'0 0.0
2018-Feb-16 20:26N 33°57' E 131°14'0 0.0
2018-Feb-16 19:50N 33°57' E 131°14'0 0.0
2018-Feb-16 19:26N 33°57' E 131°14'0 0.0
2018-Feb-16 17:05N 33°57' E 131°14'0 0.0
2018-Feb-16 16:20N 33°57' E 131°14'0 0.0
2018-Feb-16 14:23N 33°57' E 131°14'0 0.0
2018-Feb-16 13:59N 33°57' E 131°14'0 0.0
2018-Feb-16 13:29N 33°57' E 131°14'0 0.0
2018-Feb-16 12:59N 33°57' E 131°14'0 0.0
2018-Feb-16 12:14N 33°57' E 131°14'0 0.0
2018-Feb-16 11:59N 33°57' E 131°14'0 0.0
2018-Feb-16 11:26N 33°57' E 131°14'0 0.0
2018-Feb-16 10:56N 33°57' E 131°14'0 0.1
2018-Feb-16 10:29N 33°57' E 131°14'0 0.0
2018-Feb-16 09:44N 33°57' E 131°14'0 0.2
2018-Feb-16 09:26N 33°57' E 131°14'0 0.0
2018-Feb-16 08:44N 33°57' E 131°14'0 0.0
2018-Feb-16 08:26N 33°57' E 131°14'0 0.0
2018-Feb-16 07:20N 33°57' E 131°14'0 0.0
2018-Feb-16 06:02N 33°57' E 131°14'0 0.0
2018-Feb-16 05:38N 33°57' E 131°14'0 0.0
2018-Feb-16 05:14N 33°57' E 131°14'0 0.0
2018-Feb-16 04:50N 33°57' E 131°14'0 0.0
2018-Feb-16 04:26N 33°57' E 131°14'0 0.0
2018-Feb-16 03:59N 33°57' E 131°14'0 0.0
2018-Feb-16 03:29N 33°57' E 131°14'0 0.7
2018-Feb-16 03:00N 33°56' E 131°14'0 0.0
2018-Feb-16 02:30N 33°56' E 131°14'0 0.0
2018-Feb-16 02:00N 33°56' E 131°14'0 0.0
2018-Feb-16 01:30N 33°56' E 131°14'0 0.0
2018-Feb-16 01:00N 33°56' E 131°14'0 0.0
2018-Feb-16 00:27N 33°56' E 131°14'0 0.0
2018-Feb-16 00:00N 33°56' E 131°14'0 0.0
2018-Feb-15 23:30N 33°56' E 131°14'0 0.0
2018-Feb-15 23:00N 33°56' E 131°14'0 0.0
2018-Feb-15 22:30N 33°56' E 131°14'0 0.0
2018-Feb-15 22:00N 33°56' E 131°14'0 0.0
2018-Feb-15 21:30N 33°56' E 131°14'0 0.0
2018-Feb-15 21:00N 33°56' E 131°14'0 0.0
2018-Feb-15 20:27N 33°56' E 131°14'0 0.0
2018-Feb-15 20:00N 33°56' E 131°14'0 0.0
2018-Feb-15 19:30N 33°56' E 131°14'0 0.0
2018-Feb-15 18:57N 33°56' E 131°14'0 0.0
2018-Feb-15 18:30N 33°56' E 131°14'0 0.0
2018-Feb-15 18:00N 33°56' E 131°14'0 0.0
2018-Feb-15 17:30N 33°56' E 131°14'0 0.0
2018-Feb-15 17:00N 33°56' E 131°14'0 0.0
2018-Feb-15 16:30N 33°56' E 131°14'0 0.0
2018-Feb-15 15:57N 33°56' E 131°14'0 0.0
2018-Feb-15 15:30N 33°56' E 131°14'0 0.0
2018-Feb-15 15:00N 33°56' E 131°14'0 0.0
2018-Feb-15 14:30N 33°56' E 131°14'0 0.0
2018-Feb-15 14:00N 33°56' E 131°14'0 0.0
2018-Feb-15 13:30N 33°56' E 131°14'0 0.0
2018-Feb-15 13:00N 33°56' E 131°14'0 0.0
2018-Feb-15 12:27N 33°56' E 131°14'0 0.0
2018-Feb-15 12:00N 33°56' E 131°14'0 0.0
2018-Feb-15 11:30N 33°56' E 131°14'0 0.0
2018-Feb-15 11:00N 33°56' E 131°14'0 0.0
2018-Feb-15 10:30N 33°56' E 131°14'0 0.0
2018-Feb-15 10:00N 33°56' E 131°14'0 0.0
2018-Feb-15 09:30N 33°56' E 131°14'0 0.0
2018-Feb-15 08:57N 33°56' E 131°14'0 0.0
2018-Feb-15 08:30N 33°56' E 131°14'0 0.0
2018-Feb-15 08:00N 33°56' E 131°14'0 0.0
2018-Feb-15 07:27N 33°56' E 131°14'0 0.0
2018-Feb-15 07:00N 33°56' E 131°14'0 0.0
2018-Feb-15 06:24N 33°56' E 131°14'0 0.0
2018-Feb-15 06:00N 33°56' E 131°14'0 0.0
2018-Feb-15 05:30N 33°56' E 131°14'0 0.0
2018-Feb-15 05:00N 33°56' E 131°14'0 0.0
2018-Feb-15 04:30N 33°56' E 131°14'0 0.0
2018-Feb-15 04:00N 33°56' E 131°14'0 0.0
2018-Feb-15 03:30N 33°56' E 131°14'0 0.0
2018-Feb-15 03:00N 33°56' E 131°14'0 0.0
2018-Feb-15 02:27N 33°56' E 131°14'0 0.0
2018-Feb-15 01:57N 33°56' E 131°14'0 0.0
2018-Feb-15 01:30N 33°56' E 131°14'0 0.0
2018-Feb-15 01:00N 33°56' E 131°14'0 0.0
2018-Feb-15 00:27N 33°56' E 131°14'0 0.1
2018-Feb-14 23:57N 33°56' E 131°14'2 5.0
2018-Feb-14 23:29N 33°54' E 131°13'0 0.1
2018-Feb-14 22:59N 33°54' E 131°13'0 0.0
2018-Feb-14 22:26N 33°54' E 131°13'0 0.0
2018-Feb-14 21:56N 33°54' E 131°13'0 0.0
2018-Feb-14 21:29N 33°54' E 131°13'0 0.0
2018-Feb-14 20:59N 33°54' E 131°13'0 0.0
2018-Feb-14 20:29N 33°54' E 131°13'0 0.0
2018-Feb-14 19:56N 33°54' E 131°13'0 0.0
2018-Feb-14 19:26N 33°54' E 131°13'0 0.1
2018-Feb-14 18:59N 33°54' E 131°13'0 0.1
2018-Feb-14 18:29N 33°54' E 131°13'0 0.1
2018-Feb-14 17:59N 33°54' E 131°13'0 0.1
2018-Feb-14 17:29N 33°54' E 131°13'0 0.2
2018-Feb-14 16:59N 33°54' E 131°13'0 0.0
2018-Feb-14 16:29N 33°54' E 131°13'0 0.0
2018-Feb-14 15:59N 33°54' E 131°13'0 0.0
2018-Feb-14 15:29N 33°54' E 131°13'0 0.7
2018-Feb-14 15:00N 33°54' E 131°14'510.0
2018-Feb-14 14:30N 33°51' E 131°19'713.0
2018-Feb-14 14:00N 33°49' E 131°26'713.4
2018-Feb-14 13:30N 33°45' E 131°32'612.9
2018-Feb-14 13:00N 33°42' E 131°39'612.6
2018-Feb-14 12:30N 33°38' E 131°45'713.5
2018-Feb-14 12:00N 33°32' E 131°49'714.4
2018-Feb-14 11:30N 33°25' E 131°53'714.5
2018-Feb-14 11:00N 33°20' E 131°58'714.6
2018-Feb-14 10:30N 33°15' E 132°04'  
Track history (hours):
 
Tides and Currents Weather Stations Pressure Air Temp Water Temp Dewpoint Dewpoint Depression Visibility Wind Speed Wind Dir Waves Ship Positions

Kousekimaru No2

Last reported at 2018-Feb-24 09:30 UTC. Time now 2018-Feb-24 10:00 UTC.
Position N 35°32' E 140°03'.

Length 160 m; draft 10.5 m.

Type: Cargo ship. MMSI: 431400685.

Date/timePositionNaut miles runAvg speedWind from/ knotsBaromVisibWave heightAir tempDewpointWater temp
2018-Feb-24 09:30N 35°32' E 140°03'0 0.0
2018-Feb-24 09:00N 35°32' E 140°03'0 0.0
2018-Feb-24 08:30N 35°32' E 140°03'0 0.0
2018-Feb-24 08:00N 35°32' E 140°03'0 0.0
2018-Feb-24 07:30N 35°32' E 140°03'0 0.0
2018-Feb-24 07:00N 35°32' E 140°03'0 0.0
2018-Feb-24 06:30N 35°32' E 140°03'0 0.0
2018-Feb-24 05:57N 35°32' E 140°03'0 0.0
2018-Feb-24 05:30N 35°32' E 140°03'0 0.0
2018-Feb-24 05:00N 35°32' E 140°03'0 0.0
2018-Feb-24 04:30N 35°32' E 140°03'0 0.0
2018-Feb-24 04:00N 35°32' E 140°03'0 0.0
2018-Feb-24 03:30N 35°32' E 140°03'0 0.0
2018-Feb-24 03:00N 35°32' E 140°03'0 0.0
2018-Feb-24 02:30N 35°32' E 140°03'0 0.0
2018-Feb-24 02:00N 35°32' E 140°03'0 0.0
2018-Feb-24 01:30N 35°32' E 140°03'0 0.0
2018-Feb-24 01:00N 35°32' E 140°03'0 0.0
2018-Feb-24 00:30N 35°32' E 140°03'0 0.0
2018-Feb-24 00:00N 35°32' E 140°03'0 0.0
2018-Feb-23 23:30N 35°32' E 140°03'0 0.0
2018-Feb-23 23:00N 35°32' E 140°03'0 0.0
2018-Feb-23 22:30N 35°32' E 140°03'0 0.0
2018-Feb-23 22:00N 35°32' E 140°03'1 1.1
2018-Feb-23 21:30N 35°32' E 140°03'510.0
2018-Feb-23 21:00N 35°31' E 139°57'612.0
2018-Feb-23 20:30N 35°28' E 139°51'612.2
2018-Feb-23 20:00N 35°23' E 139°46'611.2
2018-Feb-23 19:30N 35°18' E 139°45'611.6
2018-Feb-23 19:00N 35°12' E 139°47'612.2
2018-Feb-23 18:30N 35°06' E 139°44'611.5
2018-Feb-23 18:00N 35°02' E 139°39'611.2
2018-Feb-23 17:31N 34°58' E 139°34'611.1
2018-Feb-23 16:58N 34°55' E 139°28'511.1
2018-Feb-23 16:30N 34°52' E 139°23'611.3
2018-Feb-23 16:00N 34°49' E 139°18'711.9
2018-Feb-23 15:26N 34°44' E 139°12'612.4
2018-Feb-23 14:59N 34°40' E 139°07'611.8
2018-Feb-23 14:31N 34°36' E 139°02'611.1
2018-Feb-23 14:00N 34°32' E 138°57'911.5
2018-Feb-23 13:14N 34°30' E 138°47'311.6
2018-Feb-23 12:57N 34°29' E 138°43'611.3
2018-Feb-23 12:26N 34°29' E 138°36'511.4
2018-Feb-23 12:00N 34°29' E 138°30'611.5
2018-Feb-23 11:29N 34°30' E 138°22'511.3
2018-Feb-23 11:00N 34°30' E 138°16'611.8
2018-Feb-23 10:29N 34°30' E 138°08'612.0
2018-Feb-23 09:59N 34°31' E 138°01'912.2
2018-Feb-23 09:15N 34°31' E 137°50'5711.6
2018-Feb-23 04:24N 34°08' E 136°48'2311.8
2018-Feb-23 02:25N 33°55' E 136°25'20 0.4
2018-Feb-21 01:03N 34°07' E 136°44'115.4
2018-Feb-21 00:59N 34°08' E 136°45'3214.8
2018-Feb-20 22:50N 34°23' E 137°19'3812.5
2018-Feb-20 19:49N 34°32' E 138°03'411.7
2018-Feb-20 19:29N 34°32' E 138°07'511.3
2018-Feb-20 19:00N 34°32' E 138°14'610.8
2018-Feb-20 18:28N 34°32' E 138°21'510.6
2018-Feb-20 18:00N 34°33' E 138°27'611.2
2018-Feb-20 17:29N 34°33' E 138°34'511.6
2018-Feb-20 17:00N 34°34' E 138°41'612.0
2018-Feb-20 16:29N 34°34' E 138°48'510.6
2018-Feb-20 15:59N 34°35' E 138°55'811.7
2018-Feb-20 15:17N 34°40' E 139°02'713.8
2018-Feb-20 14:49N 34°45' E 139°07'713.5
2018-Feb-20 14:17N 34°51' E 139°13'413.5
2018-Feb-20 13:59N 34°53' E 139°17'713.5
2018-Feb-20 13:29N 34°57' E 139°24'713.1
2018-Feb-20 12:59N 35°01' E 139°30'613.2
2018-Feb-20 12:30N 35°04' E 139°37'713.4
2018-Feb-20 12:01N 35°08' E 139°43'713.3
2018-Feb-20 11:29N 35°15' E 139°46'612.8
2018-Feb-20 11:00N 35°20' E 139°42'612.3
2018-Feb-20 10:30N 35°26' E 139°45'713.6
2018-Feb-20 10:00N 35°30' E 139°52'713.2
2018-Feb-20 09:30N 35°32' E 139°60'3 5.7
2018-Feb-20 08:59N 35°32' E 140°03'0 0.0
2018-Feb-20 08:26N 35°32' E 140°03'0 0.0
2018-Feb-20 07:56N 35°32' E 140°03'0 0.0
2018-Feb-20 07:26N 35°32' E 140°03'0 0.0
2018-Feb-20 06:56N 35°32' E 140°03'0 0.0
2018-Feb-20 06:29N 35°32' E 140°03'0 0.0
2018-Feb-20 05:59N 35°32' E 140°03'0 0.0
2018-Feb-20 05:26N 35°32' E 140°03'0 0.0
2018-Feb-20 04:59N 35°32' E 140°03'0 0.0
2018-Feb-20 04:29N 35°32' E 140°03'0 0.0
2018-Feb-20 03:59N 35°32' E 140°03'0 0.0
2018-Feb-20 03:26N 35°32' E 140°03'0 0.0
2018-Feb-20 02:59N 35°32' E 140°03'0 0.0
2018-Feb-20 02:29N 35°32' E 140°03'0 0.0
2018-Feb-20 01:56N 35°32' E 140°03'0 0.0
2018-Feb-20 01:26N 35°32' E 140°03'0 0.0
2018-Feb-20 00:56N 35°32' E 140°03'0 0.0
2018-Feb-20 00:26N 35°32' E 140°03'0 0.0
2018-Feb-19 23:56N 35°32' E 140°03'0 0.0
2018-Feb-19 23:26N 35°32' E 140°03'0 0.0
2018-Feb-19 22:59N 35°32' E 140°03'0 0.0
2018-Feb-19 22:20N 35°32' E 140°03'0 0.0
2018-Feb-19 21:56N 35°32' E 140°03'0 0.0
2018-Feb-19 21:20N 35°32' E 140°03'0 0.0
2018-Feb-19 20:56N 35°32' E 140°03'0 0.0
2018-Feb-19 20:26N 35°32' E 140°03'1 2.4
2018-Feb-19 20:00N 35°32' E 140°02'510.7
2018-Feb-19 19:30N 35°31' E 139°56'612.0
2018-Feb-19 19:01N 35°27' E 139°50'611.9
2018-Feb-19 18:30N 35°23' E 139°46'611.5
2018-Feb-19 18:01N 35°17' E 139°46'611.8
2018-Feb-19 17:30N 35°11' E 139°47'612.0
2018-Feb-19 17:00N 35°06' E 139°43'612.1
2018-Feb-19 16:30N 35°01' E 139°38'612.5
2018-Feb-19 16:00N 34°58' E 139°32'612.7
2018-Feb-19 15:30N 34°54' E 139°26'813.2
2018-Feb-19 14:52N 34°48' E 139°18'513.7
2018-Feb-19 14:30N 34°45' E 139°14'814.0
2018-Feb-19 13:57N 34°39' E 139°07'613.4
2018-Feb-19 13:30N 34°35' E 139°02'713.3
2018-Feb-19 13:00N 34°32' E 138°55'713.3
2018-Feb-19 12:29N 34°31' E 138°47'613.0
2018-Feb-19 12:00N 34°31' E 138°39'913.0
2018-Feb-19 11:20N 34°31' E 138°29'413.0
2018-Feb-19 11:00N 34°31' E 138°23'712.9
2018-Feb-19 10:30N 34°31' E 138°15'713.4
2018-Feb-19 09:57N 34°31' E 138°07'613.2
2018-Feb-19 09:30N 34°32' E 137°59'713.0
2018-Feb-19 08:58N 34°32' E 137°51'612.8
2018-Feb-19 08:28N 34°32' E 137°43'29511.1
2018-Feb-18 05:45N 33°21' E 131°57'414.2
2018-Feb-18 05:30N 33°25' E 131°55'814.0
2018-Feb-18 04:57N 33°31' E 131°51'714.3
2018-Feb-18 04:29N 33°37' E 131°47'713.5
2018-Feb-18 04:00N 33°41' E 131°41'713.7
2018-Feb-18 03:30N 33°44' E 131°33'612.6
2018-Feb-18 03:00N 33°46' E 131°26'612.4
2018-Feb-18 02:30N 33°49' E 131°19'611.5
2018-Feb-18 02:00N 33°51' E 131°13'5 9.6
2018-Feb-18 01:30N 33°56' E 131°14'1 0.4
2018-Feb-17 23:17N 33°57' E 131°14'0 0.0
2018-Feb-17 12:26N 33°57' E 131°14'0 0.0
2018-Feb-17 11:56N 33°57' E 131°14'0 0.0
2018-Feb-17 11:26N 33°57' E 131°14'0 0.0
2018-Feb-17 10:56N 33°57' E 131°14'0 0.0
2018-Feb-17 10:26N 33°57' E 131°14'0 0.0
2018-Feb-17 09:56N 33°57' E 131°14'0 0.0
2018-Feb-17 09:20N 33°57' E 131°14'0 0.0
2018-Feb-17 08:56N 33°57' E 131°14'0 0.0
2018-Feb-17 08:20N 33°57' E 131°14'0 0.0
2018-Feb-17 06:56N 33°57' E 131°14'0 0.0
2018-Feb-17 05:26N 33°57' E 131°14'0 0.0
2018-Feb-17 04:44N 33°57' E 131°14'0 0.1
2018-Feb-17 04:20N 33°57' E 131°14'0 0.0
2018-Feb-17 03:47N 33°57' E 131°14'0 0.0
2018-Feb-17 02:35N 33°57' E 131°14'0 0.0
2018-Feb-17 02:14N 33°57' E 131°14'0 0.2
2018-Feb-17 01:56N 33°57' E 131°14'0 0.1
2018-Feb-17 01:26N 33°57' E 131°14'0 0.0
2018-Feb-17 00:59N 33°57' E 131°14'0 0.0
2018-Feb-17 00:26N 33°57' E 131°14'0 0.0
2018-Feb-16 23:56N 33°57' E 131°14'0 0.0
2018-Feb-16 23:26N 33°57' E 131°14'0 0.0
2018-Feb-16 22:56N 33°57' E 131°14'0 0.0
2018-Feb-16 22:14N 33°57' E 131°14'0 0.0
2018-Feb-16 21:50N 33°57' E 131°14'0 0.0
2018-Feb-16 21:26N 33°57' E 131°14'0 0.0
2018-Feb-16 20:56N 33°57' E 131°14'0 0.0
2018-Feb-16 20:26N 33°57' E 131°14'0 0.0
2018-Feb-16 19:50N 33°57' E 131°14'0 0.0
2018-Feb-16 19:26N 33°57' E 131°14'0 0.0
2018-Feb-16 17:05N 33°57' E 131°14'0 0.0
2018-Feb-16 16:20N 33°57' E 131°14'0 0.0
2018-Feb-16 14:23N 33°57' E 131°14'0 0.0
2018-Feb-16 13:59N 33°57' E 131°14'0 0.0
2018-Feb-16 13:29N 33°57' E 131°14'0 0.0
2018-Feb-16 12:59N 33°57' E 131°14'0 0.0
2018-Feb-16 12:14N 33°57' E 131°14'0 0.0
2018-Feb-16 11:59N 33°57' E 131°14'0 0.0
2018-Feb-16 11:26N 33°57' E 131°14'0 0.0
2018-Feb-16 10:56N 33°57' E 131°14'0 0.1
2018-Feb-16 10:29N 33°57' E 131°14'0 0.0
2018-Feb-16 09:44N 33°57' E 131°14'0 0.2
2018-Feb-16 09:26N 33°57' E 131°14'0 0.0
2018-Feb-16 08:44N 33°57' E 131°14'0 0.0
2018-Feb-16 08:26N 33°57' E 131°14'0 0.0
2018-Feb-16 07:20N 33°57' E 131°14'0 0.0
2018-Feb-16 06:02N 33°57' E 131°14'0 0.0
2018-Feb-16 05:38N 33°57' E 131°14'0 0.0
2018-Feb-16 05:14N 33°57' E 131°14'0 0.0
2018-Feb-16 04:50N 33°57' E 131°14'0 0.0
2018-Feb-16 04:26N 33°57' E 131°14'0 0.0
2018-Feb-16 03:59N 33°57' E 131°14'0 0.0
2018-Feb-16 03:29N 33°57' E 131°14'0 0.7
2018-Feb-16 03:00N 33°56' E 131°14'0 0.0
2018-Feb-16 02:30N 33°56' E 131°14'0 0.0
2018-Feb-16 02:00N 33°56' E 131°14'0 0.0
2018-Feb-16 01:30N 33°56' E 131°14'0 0.0
2018-Feb-16 01:00N 33°56' E 131°14'0 0.0
2018-Feb-16 00:27N 33°56' E 131°14'0 0.0
2018-Feb-16 00:00N 33°56' E 131°14'0 0.0
2018-Feb-15 23:30N 33°56' E 131°14'0 0.0
2018-Feb-15 23:00N 33°56' E 131°14'0 0.0
2018-Feb-15 22:30N 33°56' E 131°14'0 0.0
2018-Feb-15 22:00N 33°56' E 131°14'0 0.0
2018-Feb-15 21:30N 33°56' E 131°14'0 0.0
2018-Feb-15 21:00N 33°56' E 131°14'0 0.0
2018-Feb-15 20:27N 33°56' E 131°14'0 0.0
2018-Feb-15 20:00N 33°56' E 131°14'0 0.0
2018-Feb-15 19:30N 33°56' E 131°14'0 0.0
2018-Feb-15 18:57N 33°56' E 131°14'0 0.0
2018-Feb-15 18:30N 33°56' E 131°14'0 0.0
2018-Feb-15 18:00N 33°56' E 131°14'0 0.0
2018-Feb-15 17:30N 33°56' E 131°14'0 0.0
2018-Feb-15 17:00N 33°56' E 131°14'0 0.0
2018-Feb-15 16:30N 33°56' E 131°14'0 0.0
2018-Feb-15 15:57N 33°56' E 131°14'0 0.0
2018-Feb-15 15:30N 33°56' E 131°14'0 0.0
2018-Feb-15 15:00N 33°56' E 131°14'0 0.0
2018-Feb-15 14:30N 33°56' E 131°14'0 0.0
2018-Feb-15 14:00N 33°56' E 131°14'0 0.0
2018-Feb-15 13:30N 33°56' E 131°14'0 0.0
2018-Feb-15 13:00N 33°56' E 131°14'0 0.0
2018-Feb-15 12:27N 33°56' E 131°14'0 0.0
2018-Feb-15 12:00N 33°56' E 131°14'0 0.0
2018-Feb-15 11:30N 33°56' E 131°14'0 0.0
2018-Feb-15 11:00N 33°56' E 131°14'0 0.0
2018-Feb-15 10:30N 33°56' E 131°14'0 0.0
2018-Feb-15 10:00N 33°56' E 131°14'0 0.0
2018-Feb-15 09:30N 33°56' E 131°14'0 0.0
2018-Feb-15 08:57N 33°56' E 131°14'0 0.0
2018-Feb-15 08:30N 33°56' E 131°14'0 0.0
2018-Feb-15 08:00N 33°56' E 131°14'0 0.0
2018-Feb-15 07:27N 33°56' E 131°14'0 0.0
2018-Feb-15 07:00N 33°56' E 131°14'0 0.0
2018-Feb-15 06:24N 33°56' E 131°14'0 0.0
2018-Feb-15 06:00N 33°56' E 131°14'0 0.0
2018-Feb-15 05:30N 33°56' E 131°14'0 0.0
2018-Feb-15 05:00N 33°56' E 131°14'0 0.0
2018-Feb-15 04:30N 33°56' E 131°14'0 0.0
2018-Feb-15 04:00N 33°56' E 131°14'0 0.0
2018-Feb-15 03:30N 33°56' E 131°14'0 0.0
2018-Feb-15 03:00N 33°56' E 131°14'0 0.0
2018-Feb-15 02:27N 33°56' E 131°14'0 0.0
2018-Feb-15 01:57N 33°56' E 131°14'0 0.0
2018-Feb-15 01:30N 33°56' E 131°14'0 0.0
2018-Feb-15 01:00N 33°56' E 131°14'0 0.0
2018-Feb-15 00:27N 33°56' E 131°14'0 0.1
2018-Feb-14 23:57N 33°56' E 131°14'2 5.0
2018-Feb-14 23:29N 33°54' E 131°13'0 0.1
2018-Feb-14 22:59N 33°54' E 131°13'0 0.0
2018-Feb-14 22:26N 33°54' E 131°13'0 0.0
2018-Feb-14 21:56N 33°54' E 131°13'0 0.0
2018-Feb-14 21:29N 33°54' E 131°13'0 0.0
2018-Feb-14 20:59N 33°54' E 131°13'0 0.0
2018-Feb-14 20:29N 33°54' E 131°13'0 0.0
2018-Feb-14 19:56N 33°54' E 131°13'0 0.0
2018-Feb-14 19:26N 33°54' E 131°13'0 0.1
2018-Feb-14 18:59N 33°54' E 131°13'0 0.1
2018-Feb-14 18:29N 33°54' E 131°13'0 0.1
2018-Feb-14 17:59N 33°54' E 131°13'0 0.1
2018-Feb-14 17:29N 33°54' E 131°13'0 0.2
2018-Feb-14 16:59N 33°54' E 131°13'0 0.0
2018-Feb-14 16:29N 33°54' E 131°13'0 0.0
2018-Feb-14 15:59N 33°54' E 131°13'0 0.0
2018-Feb-14 15:29N 33°54' E 131°13'0 0.7
2018-Feb-14 15:00N 33°54' E 131°14'510.0
2018-Feb-14 14:30N 33°51' E 131°19'713.0
2018-Feb-14 14:00N 33°49' E 131°26'713.4
2018-Feb-14 13:30N 33°45' E 131°32'612.9
2018-Feb-14 13:00N 33°42' E 131°39'612.6
2018-Feb-14 12:30N 33°38' E 131°45'713.5
2018-Feb-14 12:00N 33°32' E 131°49'714.4
2018-Feb-14 11:30N 33°25' E 131°53'714.5
2018-Feb-14 11:00N 33°20' E 131°58'714.6
2018-Feb-14 10:30N 33°15' E 132°04'  

Dump ship's entire track history